sensor_id;sensor_type;location;lat;lon;timestamp;temperature;humidity
22635;DHT22;11484;50.858;4.384;2023-01-08T00:01:04;11.50;99.90
22635;DHT22;11484;50.858;4.384;2023-01-08T00:03:30;11.60;99.90
22635;DHT22;11484;50.858;4.384;2023-01-08T00:06:03;11.60;99.90
22635;DHT22;11484;50.858;4.384;2023-01-08T00:08:30;11.60;99.90
22635;DHT22;11484;50.858;4.384;2023-01-08T00:10:58;11.60;99.90
22635;DHT22;11484;50.858;4.384;2023-01-08T00:13:25;11.70;99.90
22635;DHT22;11484;50.858;4.384;2023-01-08T00:15:52;11.80;99.90
22635;DHT22;11484;50.858;4.384;2023-01-08T00:18:18;11.70;99.90
22635;DHT22;11484;50.858;4.384;2023-01-08T00:20:45;11.60;99.90
22635;DHT22;11484;50.858;4.384;2023-01-08T00:23:15;11.50;99.90
22635;DHT22;11484;50.858;4.384;2023-01-08T00:25:41;11.20;99.90
22635;DHT22;11484;50.858;4.384;2023-01-08T00:28:07;11.10;99.90
22635;DHT22;11484;50.858;4.384;2023-01-08T00:30:33;10.90;99.90
22635;DHT22;11484;50.858;4.384;2023-01-08T00:32:59;10.80;99.90
22635;DHT22;11484;50.858;4.384;2023-01-08T00:35:24;10.60;99.90
22635;DHT22;11484;50.858;4.384;2023-01-08T00:37:50;10.50;99.90
22635;DHT22;11484;50.858;4.384;2023-01-08T00:40:16;10.50;99.90
22635;DHT22;11484;50.858;4.384;2023-01-08T00:42:42;10.40;99.90
22635;DHT22;11484;50.858;4.384;2023-01-08T00:45:09;10.40;99.90
22635;DHT22;11484;50.858;4.384;2023-01-08T00:47:35;10.50;99.90
22635;DHT22;11484;50.858;4.384;2023-01-08T00:50:02;10.40;99.90
22635;DHT22;11484;50.858;4.384;2023-01-08T00:52:28;10.30;99.90
22635;DHT22;11484;50.858;4.384;2023-01-08T00:54:53;10.10;99.90
22635;DHT22;11484;50.858;4.384;2023-01-08T00:57:19;10.10;99.90
22635;DHT22;11484;50.858;4.384;2023-01-08T00:59:45;10.10;99.90
22635;DHT22;11484;50.858;4.384;2023-01-08T01:02:14;10.10;99.90
22635;DHT22;11484;50.858;4.384;2023-01-08T01:04:40;10.10;99.90
22635;DHT22;11484;50.858;4.384;2023-01-08T01:07:06;10.00;99.90
22635;DHT22;11484;50.858;4.384;2023-01-08T01:09:32;9.90;99.90
22635;DHT22;11484;50.858;4.384;2023-01-08T01:11:57;9.90;99.90
22635;DHT22;11484;50.858;4.384;2023-01-08T01:14:23;9.90;99.90
22635;DHT22;11484;50.858;4.384;2023-01-08T01:16:49;9.80;99.90
22635;DHT22;11484;50.858;4.384;2023-01-08T01:19:16;9.80;99.90
22635;DHT22;11484;50.858;4.384;2023-01-08T01:21:43;9.80;99.90
22635;DHT22;11484;50.858;4.384;2023-01-08T01:24:10;9.80;99.90
22635;DHT22;11484;50.858;4.384;2023-01-08T01:26:37;9.80;99.90
22635;DHT22;11484;50.858;4.384;2023-01-08T01:29:03;9.70;99.90
22635;DHT22;11484;50.858;4.384;2023-01-08T01:31:30;9.60;99.90
22635;DHT22;11484;50.858;4.384;2023-01-08T01:34:00;9.70;99.90
22635;DHT22;11484;50.858;4.384;2023-01-08T01:36:26;9.60;99.90
22635;DHT22;11484;50.858;4.384;2023-01-08T01:38:53;9.70;99.90
22635;DHT22;11484;50.858;4.384;2023-01-08T01:41:35;9.60;99.90
22635;DHT22;11484;50.858;4.384;2023-01-08T01:44:40;9.70;99.90
22635;DHT22;11484;50.858;4.384;2023-01-08T01:47:45;9.70;99.90
22635;DHT22;11484;50.858;4.384;2023-01-08T01:53:02;9.80;99.90
22635;DHT22;11484;50.858;4.384;2023-01-08T01:55:30;9.80;99.90
22635;DHT22;11484;50.858;4.384;2023-01-08T01:58:14;9.80;99.90
22635;DHT22;11484;50.858;4.384;2023-01-08T02:00:41;9.90;99.90
22635;DHT22;11484;50.858;4.384;2023-01-08T02:03:10;9.80;99.90
22635;DHT22;11484;50.858;4.384;2023-01-08T02:14:21;10.00;99.90
22635;DHT22;11484;50.858;4.384;2023-01-08T02:17:01;10.00;99.90
22635;DHT22;11484;50.858;4.384;2023-01-08T02:19:55;10.00;99.90
22635;DHT22;11484;50.858;4.384;2023-01-08T02:27:35;10.00;99.90
22635;DHT22;11484;50.858;4.384;2023-01-08T02:30:05;10.00;99.90
22635;DHT22;11484;50.858;4.384;2023-01-08T02:32:35;10.10;99.90
22635;DHT22;11484;50.858;4.384;2023-01-08T02:35:01;10.20;99.90
22635;DHT22;11484;50.858;4.384;2023-01-08T02:37:27;10.20;99.90
22635;DHT22;11484;50.858;4.384;2023-01-08T02:40:10;10.30;99.90
22635;DHT22;11484;50.858;4.384;2023-01-08T02:43:12;10.30;99.90
22635;DHT22;11484;50.858;4.384;2023-01-08T02:45:45;10.20;99.90
22635;DHT22;11484;50.858;4.384;2023-01-08T02:48:34;10.10;99.90
22635;DHT22;11484;50.858;4.384;2023-01-08T02:53:31;10.00;99.90
22635;DHT22;11484;50.858;4.384;2023-01-08T02:56:08;9.90;99.90
22635;DHT22;11484;50.858;4.384;2023-01-08T02:58:36;9.90;99.90
22635;DHT22;11484;50.858;4.384;2023-01-08T03:01:06;9.90;99.90
22635;DHT22;11484;50.858;4.384;2023-01-08T03:03:34;9.90;99.90
22635;DHT22;11484;50.858;4.384;2023-01-08T03:06:07;9.90;99.90
22635;DHT22;11484;50.858;4.384;2023-01-08T03:08:37;9.90;99.90
22635;DHT22;11484;50.858;4.384;2023-01-08T03:11:06;9.90;99.90
22635;DHT22;11484;50.858;4.384;2023-01-08T03:16:29;9.90;99.90
22635;DHT22;11484;50.858;4.384;2023-01-08T03:19:11;10.00;99.90
22635;DHT22;11484;50.858;4.384;2023-01-08T03:21:39;10.00;99.90
22635;DHT22;11484;50.858;4.384;2023-01-08T03:24:07;10.00;99.90
22635;DHT22;11484;50.858;4.384;2023-01-08T03:26:38;10.00;99.90
22635;DHT22;11484;50.858;4.384;2023-01-08T03:29:09;9.90;99.90
22635;DHT22;11484;50.858;4.384;2023-01-08T03:31:37;10.00;99.90
22635;DHT22;11484;50.858;4.384;2023-01-08T03:34:04;9.90;99.90
22635;DHT22;11484;50.858;4.384;2023-01-08T03:36:33;10.00;99.90
22635;DHT22;11484;50.858;4.384;2023-01-08T03:39:08;9.90;99.90
22635;DHT22;11484;50.858;4.384;2023-01-08T03:41:37;10.00;99.90
22635;DHT22;11484;50.858;4.384;2023-01-08T03:44:03;9.90;99.90
22635;DHT22;11484;50.858;4.384;2023-01-08T03:46:32;10.00;99.90
22635;DHT22;11484;50.858;4.384;2023-01-08T03:48:59;10.00;99.90
22635;DHT22;11484;50.858;4.384;2023-01-08T03:51:25;9.90;99.90
22635;DHT22;11484;50.858;4.384;2023-01-08T03:53:53;9.90;99.90
22635;DHT22;11484;50.858;4.384;2023-01-08T03:56:21;9.90;99.90
22635;DHT22;11484;50.858;4.384;2023-01-08T03:58:47;9.90;99.90
22635;DHT22;11484;50.858;4.384;2023-01-08T04:01:12;9.90;99.90
22635;DHT22;11484;50.858;4.384;2023-01-08T04:03:38;9.90;99.90
22635;DHT22;11484;50.858;4.384;2023-01-08T04:06:04;9.90;99.90
22635;DHT22;11484;50.858;4.384;2023-01-08T04:08:30;9.80;99.90
22635;DHT22;11484;50.858;4.384;2023-01-08T04:10:55;9.80;99.90
22635;DHT22;11484;50.858;4.384;2023-01-08T04:13:21;9.80;99.90
22635;DHT22;11484;50.858;4.384;2023-01-08T04:15:48;9.70;99.90
22635;DHT22;11484;50.858;4.384;2023-01-08T04:18:14;9.70;99.90
22635;DHT22;11484;50.858;4.384;2023-01-08T04:20:44;9.70;99.90
22635;DHT22;11484;50.858;4.384;2023-01-08T04:23:11;9.80;99.90
22635;DHT22;11484;50.858;4.384;2023-01-08T04:25:37;9.80;99.90
22635;DHT22;11484;50.858;4.384;2023-01-08T04:28:03;9.80;99.90
22635;DHT22;11484;50.858;4.384;2023-01-08T04:30:29;9.80;99.90
22635;DHT22;11484;50.858;4.384;2023-01-08T04:32:55;9.70;99.90
22635;DHT22;11484;50.858;4.384;2023-01-08T04:35:21;9.60;99.90
22635;DHT22;11484;50.858;4.384;2023-01-08T04:37:46;9.60;99.90
22635;DHT22;11484;50.858;4.384;2023-01-08T04:40:12;9.50;99.90
22635;DHT22;11484;50.858;4.384;2023-01-08T04:42:38;9.40;99.90
22635;DHT22;11484;50.858;4.384;2023-01-08T04:45:05;9.30;99.90
22635;DHT22;11484;50.858;4.384;2023-01-08T04:47:31;9.20;99.90
22635;DHT22;11484;50.858;4.384;2023-01-08T04:49:57;9.20;99.90
22635;DHT22;11484;50.858;4.384;2023-01-08T04:52:22;9.20;99.90
22635;DHT22;11484;50.858;4.384;2023-01-08T04:54:48;9.20;99.90
22635;DHT22;11484;50.858;4.384;2023-01-08T04:57:14;9.20;99.90
22635;DHT22;11484;50.858;4.384;2023-01-08T04:59:40;9.20;99.90
22635;DHT22;11484;50.858;4.384;2023-01-08T05:02:05;9.20;99.90
22635;DHT22;11484;50.858;4.384;2023-01-08T05:04:31;9.10;99.90
22635;DHT22;11484;50.858;4.384;2023-01-08T05:06:57;9.10;99.90
22635;DHT22;11484;50.858;4.384;2023-01-08T05:09:22;9.00;99.90
22635;DHT22;11484;50.858;4.384;2023-01-08T05:11:48;9.00;99.90
22635;DHT22;11484;50.858;4.384;2023-01-08T05:14:14;9.00;99.90
22635;DHT22;11484;50.858;4.384;2023-01-08T05:16:40;9.00;99.90
22635;DHT22;11484;50.858;4.384;2023-01-08T05:19:06;9.00;99.90
22635;DHT22;11484;50.858;4.384;2023-01-08T05:21:32;9.00;99.90
22635;DHT22;11484;50.858;4.384;2023-01-08T05:23:58;9.10;99.90
22635;DHT22;11484;50.858;4.384;2023-01-08T05:26:24;9.00;99.90
22635;DHT22;11484;50.858;4.384;2023-01-08T05:28:49;8.90;99.90
22635;DHT22;11484;50.858;4.384;2023-01-08T05:31:15;8.90;99.90
22635;DHT22;11484;50.858;4.384;2023-01-08T05:33:41;8.90;99.90
22635;DHT22;11484;50.858;4.384;2023-01-08T05:36:09;8.90;99.90
22635;DHT22;11484;50.858;4.384;2023-01-08T05:38:35;8.90;99.90
22635;DHT22;11484;50.858;4.384;2023-01-08T05:41:01;8.90;99.90
22635;DHT22;11484;50.858;4.384;2023-01-08T05:43:27;8.80;99.90
22635;DHT22;11484;50.858;4.384;2023-01-08T05:45:53;8.80;99.90
22635;DHT22;11484;50.858;4.384;2023-01-08T05:48:19;8.90;99.90
22635;DHT22;11484;50.858;4.384;2023-01-08T05:50:48;8.80;99.90
22635;DHT22;11484;50.858;4.384;2023-01-08T05:53:14;8.80;99.90
22635;DHT22;11484;50.858;4.384;2023-01-08T05:55:40;8.80;99.90
22635;DHT22;11484;50.858;4.384;2023-01-08T05:58:06;8.70;99.90
22635;DHT22;11484;50.858;4.384;2023-01-08T06:00:34;8.70;99.90
22635;DHT22;11484;50.858;4.384;2023-01-08T06:03:00;8.70;99.90
22635;DHT22;11484;50.858;4.384;2023-01-08T06:05:25;8.70;99.90
22635;DHT22;11484;50.858;4.384;2023-01-08T06:07:51;8.70;99.90
22635;DHT22;11484;50.858;4.384;2023-01-08T06:10:17;8.60;99.90
22635;DHT22;11484;50.858;4.384;2023-01-08T06:12:42;8.60;99.90
22635;DHT22;11484;50.858;4.384;2023-01-08T06:15:09;8.60;99.90
22635;DHT22;11484;50.858;4.384;2023-01-08T06:17:39;8.60;99.90
22635;DHT22;11484;50.858;4.384;2023-01-08T06:20:05;8.60;99.90
22635;DHT22;11484;50.858;4.384;2023-01-08T06:22:31;8.70;99.90
22635;DHT22;11484;50.858;4.384;2023-01-08T06:24:57;8.60;99.90
22635;DHT22;11484;50.858;4.384;2023-01-08T06:27:22;8.70;99.90
22635;DHT22;11484;50.858;4.384;2023-01-08T06:29:48;8.60;99.90
22635;DHT22;11484;50.858;4.384;2023-01-08T06:32:14;8.60;99.90
22635;DHT22;11484;50.858;4.384;2023-01-08T06:34:39;8.60;99.90
22635;DHT22;11484;50.858;4.384;2023-01-08T06:37:05;8.60;99.90
22635;DHT22;11484;50.858;4.384;2023-01-08T06:39:31;8.70;99.90
22635;DHT22;11484;50.858;4.384;2023-01-08T06:41:56;8.70;99.90
22635;DHT22;11484;50.858;4.384;2023-01-08T06:44:22;8.70;99.90
22635;DHT22;11484;50.858;4.384;2023-01-08T06:46:48;8.60;99.90
22635;DHT22;11484;50.858;4.384;2023-01-08T06:49:14;8.60;99.90
22635;DHT22;11484;50.858;4.384;2023-01-08T06:51:39;8.60;99.90
22635;DHT22;11484;50.858;4.384;2023-01-08T06:54:05;8.70;99.90
22635;DHT22;11484;50.858;4.384;2023-01-08T06:56:30;8.80;99.90
22635;DHT22;11484;50.858;4.384;2023-01-08T06:58:56;8.80;99.90
22635;DHT22;11484;50.858;4.384;2023-01-08T07:01:22;8.80;99.90
22635;DHT22;11484;50.858;4.384;2023-01-08T07:03:48;8.80;99.90
22635;DHT22;11484;50.858;4.384;2023-01-08T07:06:15;8.80;99.90
22635;DHT22;11484;50.858;4.384;2023-01-08T07:08:42;8.80;99.90
22635;DHT22;11484;50.858;4.384;2023-01-08T07:11:08;8.80;99.90
22635;DHT22;11484;50.858;4.384;2023-01-08T07:13:34;8.90;99.90
22635;DHT22;11484;50.858;4.384;2023-01-08T07:16:11;8.90;99.90
22635;DHT22;11484;50.858;4.384;2023-01-08T07:18:37;8.90;99.90
22635;DHT22;11484;50.858;4.384;2023-01-08T07:21:04;8.90;99.90
22635;DHT22;11484;50.858;4.384;2023-01-08T07:23:31;8.90;99.90
22635;DHT22;11484;50.858;4.384;2023-01-08T07:26:01;9.00;99.90
22635;DHT22;11484;50.858;4.384;2023-01-08T07:28:27;9.00;99.90
22635;DHT22;11484;50.858;4.384;2023-01-08T07:30:53;9.00;99.90
22635;DHT22;11484;50.858;4.384;2023-01-08T07:33:19;9.10;99.90
22635;DHT22;11484;50.858;4.384;2023-01-08T07:35:54;9.10;99.90
22635;DHT22;11484;50.858;4.384;2023-01-08T07:38:20;9.10;99.90
22635;DHT22;11484;50.858;4.384;2023-01-08T07:40:46;9.10;99.90
22635;DHT22;11484;50.858;4.384;2023-01-08T07:43:12;9.20;99.90
22635;DHT22;11484;50.858;4.384;2023-01-08T07:45:38;9.20;99.90
22635;DHT22;11484;50.858;4.384;2023-01-08T07:48:04;9.20;99.90
22635;DHT22;11484;50.858;4.384;2023-01-08T07:50:30;9.30;99.90
22635;DHT22;11484;50.858;4.384;2023-01-08T07:53:00;9.30;99.90
22635;DHT22;11484;50.858;4.384;2023-01-08T07:55:27;9.30;99.90
22635;DHT22;11484;50.858;4.384;2023-01-08T07:57:53;9.20;99.90
22635;DHT22;11484;50.858;4.384;2023-01-08T08:00:19;9.30;99.90
22635;DHT22;11484;50.858;4.384;2023-01-08T08:02:54;9.30;99.90
22635;DHT22;11484;50.858;4.384;2023-01-08T08:05:20;9.20;99.90
22635;DHT22;11484;50.858;4.384;2023-01-08T08:07:46;9.20;99.90
22635;DHT22;11484;50.858;4.384;2023-01-08T08:10:12;9.20;99.90
22635;DHT22;11484;50.858;4.384;2023-01-08T08:12:37;9.30;99.90
22635;DHT22;11484;50.858;4.384;2023-01-08T08:15:03;9.30;99.90
22635;DHT22;11484;50.858;4.384;2023-01-08T08:17:29;9.30;99.90
22635;DHT22;11484;50.858;4.384;2023-01-08T08:19:55;9.30;99.90
22635;DHT22;11484;50.858;4.384;2023-01-08T08:22:21;9.40;99.90
22635;DHT22;11484;50.858;4.384;2023-01-08T08:24:46;9.40;99.90
22635;DHT22;11484;50.858;4.384;2023-01-08T08:27:12;9.50;99.90
22635;DHT22;11484;50.858;4.384;2023-01-08T08:29:38;9.50;99.90
22635;DHT22;11484;50.858;4.384;2023-01-08T08:32:03;9.50;99.90
22635;DHT22;11484;50.858;4.384;2023-01-08T08:34:29;9.50;99.90
22635;DHT22;11484;50.858;4.384;2023-01-08T08:36:55;9.60;99.90
22635;DHT22;11484;50.858;4.384;2023-01-08T08:39:21;9.60;99.90
22635;DHT22;11484;50.858;4.384;2023-01-08T08:41:46;9.70;99.90
22635;DHT22;11484;50.858;4.384;2023-01-08T08:44:12;9.80;99.90
22635;DHT22;11484;50.858;4.384;2023-01-08T08:46:38;9.70;99.90
22635;DHT22;11484;50.858;4.384;2023-01-08T08:49:03;9.70;99.90
22635;DHT22;11484;50.858;4.384;2023-01-08T08:51:29;9.70;99.90
22635;DHT22;11484;50.858;4.384;2023-01-08T08:53:55;9.60;99.90
22635;DHT22;11484;50.858;4.384;2023-01-08T08:56:21;9.60;99.90
22635;DHT22;11484;50.858;4.384;2023-01-08T08:58:47;9.60;99.90
22635;DHT22;11484;50.858;4.384;2023-01-08T09:01:12;9.60;99.90
22635;DHT22;11484;50.858;4.384;2023-01-08T09:03:38;9.60;99.90
22635;DHT22;11484;50.858;4.384;2023-01-08T09:06:05;9.60;99.90
22635;DHT22;11484;50.858;4.384;2023-01-08T09:08:31;9.60;99.90
22635;DHT22;11484;50.858;4.384;2023-01-08T09:10:57;9.60;99.90
22635;DHT22;11484;50.858;4.384;2023-01-08T09:13:23;9.60;99.90
22635;DHT22;11484;50.858;4.384;2023-01-08T09:15:48;9.70;99.90
22635;DHT22;11484;50.858;4.384;2023-01-08T09:18:14;9.80;99.90
22635;DHT22;11484;50.858;4.384;2023-01-08T09:20:40;9.70;99.90
22635;DHT22;11484;50.858;4.384;2023-01-08T09:23:05;9.70;99.90
22635;DHT22;11484;50.858;4.384;2023-01-08T09:25:31;9.70;99.90
22635;DHT22;11484;50.858;4.384;2023-01-08T09:28:03;9.70;99.90
22635;DHT22;11484;50.858;4.384;2023-01-08T09:30:30;9.70;99.90
22635;DHT22;11484;50.858;4.384;2023-01-08T09:33:00;9.70;99.90
22635;DHT22;11484;50.858;4.384;2023-01-08T09:35:26;9.60;99.90
22635;DHT22;11484;50.858;4.384;2023-01-08T09:37:53;9.60;99.90
22635;DHT22;11484;50.858;4.384;2023-01-08T09:40:21;9.60;99.90
22635;DHT22;11484;50.858;4.384;2023-01-08T09:42:53;9.70;99.90
22635;DHT22;11484;50.858;4.384;2023-01-08T09:45:30;9.60;99.90
22635;DHT22;11484;50.858;4.384;2023-01-08T09:47:58;9.60;99.90
22635;DHT22;11484;50.858;4.384;2023-01-08T09:50:26;9.60;99.90
22635;DHT22;11484;50.858;4.384;2023-01-08T09:52:53;9.60;99.90
22635;DHT22;11484;50.858;4.384;2023-01-08T09:55:19;9.60;99.90
22635;DHT22;11484;50.858;4.384;2023-01-08T09:57:46;9.60;99.90
22635;DHT22;11484;50.858;4.384;2023-01-08T10:00:14;9.60;99.90
22635;DHT22;11484;50.858;4.384;2023-01-08T10:02:41;9.60;99.90
22635;DHT22;11484;50.858;4.384;2023-01-08T10:05:14;9.90;99.90
22635;DHT22;11484;50.858;4.384;2023-01-08T10:07:40;10.40;99.90
22635;DHT22;11484;50.858;4.384;2023-01-08T10:12:41;10.20;99.90
22635;DHT22;11484;50.858;4.384;2023-01-08T10:15:12;10.00;99.90
22635;DHT22;11484;50.858;4.384;2023-01-08T10:17:41;9.90;99.90
22635;DHT22;11484;50.858;4.384;2023-01-08T10:20:18;9.90;99.90
22635;DHT22;11484;50.858;4.384;2023-01-08T10:22:44;9.90;99.90
22635;DHT22;11484;50.858;4.384;2023-01-08T10:25:33;9.90;99.90
22635;DHT22;11484;50.858;4.384;2023-01-08T10:28:19;10.00;99.90
22635;DHT22;11484;50.858;4.384;2023-01-08T10:30:45;10.00;99.90
22635;DHT22;11484;50.858;4.384;2023-01-08T10:33:25;10.00;99.90
22635;DHT22;11484;50.858;4.384;2023-01-08T10:35:59;10.10;99.90
22635;DHT22;11484;50.858;4.384;2023-01-08T10:38:33;10.00;99.90
22635;DHT22;11484;50.858;4.384;2023-01-08T10:41:05;10.10;99.90
22635;DHT22;11484;50.858;4.384;2023-01-08T10:43:42;10.10;99.90
22635;DHT22;11484;50.858;4.384;2023-01-08T10:46:30;10.10;99.90
22635;DHT22;11484;50.858;4.384;2023-01-08T10:49:01;10.00;99.90
22635;DHT22;11484;50.858;4.384;2023-01-08T10:51:30;10.10;99.90
22635;DHT22;11484;50.858;4.384;2023-01-08T10:54:11;10.10;99.90
22635;DHT22;11484;50.858;4.384;2023-01-08T10:56:43;10.20;99.90
22635;DHT22;11484;50.858;4.384;2023-01-08T10:59:19;10.20;99.90
22635;DHT22;11484;50.858;4.384;2023-01-08T11:01:46;10.20;99.90
22635;DHT22;11484;50.858;4.384;2023-01-08T11:04:42;10.30;99.90
22635;DHT22;11484;50.858;4.384;2023-01-08T11:07:17;10.40;99.90
22635;DHT22;11484;50.858;4.384;2023-01-08T11:09:46;10.40;99.90
22635;DHT22;11484;50.858;4.384;2023-01-08T11:12:39;10.40;99.90
22635;DHT22;11484;50.858;4.384;2023-01-08T11:17:42;10.60;99.90
22635;DHT22;11484;50.858;4.384;2023-01-08T11:23:18;10.60;99.90
22635;DHT22;11484;50.858;4.384;2023-01-08T11:26:09;10.60;99.90
22635;DHT22;11484;50.858;4.384;2023-01-08T11:29:10;10.60;99.90
22635;DHT22;11484;50.858;4.384;2023-01-08T11:34:18;10.60;99.90
22635;DHT22;11484;50.858;4.384;2023-01-08T11:37:09;10.60;99.90
22635;DHT22;11484;50.858;4.384;2023-01-08T11:39:37;10.60;99.90
22635;DHT22;11484;50.858;4.384;2023-01-08T11:48:09;10.60;99.90
22635;DHT22;11484;50.858;4.384;2023-01-08T11:53:42;10.50;99.90
22635;DHT22;11484;50.858;4.384;2023-01-08T11:56:32;10.50;99.90
22635;DHT22;11484;50.858;4.384;2023-01-08T11:59:13;10.60;99.90
22635;DHT22;11484;50.858;4.384;2023-01-08T12:05:27;10.60;99.90
22635;DHT22;11484;50.858;4.384;2023-01-08T12:08:06;10.70;99.90
22635;DHT22;11484;50.858;4.384;2023-01-08T12:14:00;10.60;99.90
22635;DHT22;11484;50.858;4.384;2023-01-08T12:30:00;11.30;99.90
22635;DHT22;11484;50.858;4.384;2023-01-08T12:32:55;11.30;99.90
22635;DHT22;11484;50.858;4.384;2023-01-08T12:35:27;11.30;99.90
22635;DHT22;11484;50.858;4.384;2023-01-08T12:38:38;11.40;99.90
22635;DHT22;11484;50.858;4.384;2023-01-08T12:40:50;11.60;99.90
22635;DHT22;11484;50.858;4.384;2023-01-08T12:46:16;11.50;99.90
22635;DHT22;11484;50.858;4.384;2023-01-08T12:48:44;11.40;99.90
22635;DHT22;11484;50.858;4.384;2023-01-08T12:52:18;11.50;99.90
22635;DHT22;11484;50.858;4.384;2023-01-08T12:56:51;11.60;99.90
22635;DHT22;11484;50.858;4.384;2023-01-08T12:59:30;11.70;99.90
22635;DHT22;11484;50.858;4.384;2023-01-08T13:07:50;11.70;99.90
22635;DHT22;11484;50.858;4.384;2023-01-08T13:10:40;11.60;99.90
22635;DHT22;11484;50.858;4.384;2023-01-08T13:15:52;11.70;99.90
22635;DHT22;11484;50.858;4.384;2023-01-08T13:18:29;11.50;99.90
22635;DHT22;11484;50.858;4.384;2023-01-08T13:20:56;11.40;99.90
22635;DHT22;11484;50.858;4.384;2023-01-08T13:23:25;11.30;99.90
22635;DHT22;11484;50.858;4.384;2023-01-08T13:25:54;11.30;99.90
22635;DHT22;11484;50.858;4.384;2023-01-08T13:28:28;11.30;99.90
22635;DHT22;11484;50.858;4.384;2023-01-08T13:30:54;11.30;99.90
22635;DHT22;11484;50.858;4.384;2023-01-08T13:38:39;11.10;99.90
22635;DHT22;11484;50.858;4.384;2023-01-08T13:41:23;11.10;99.90
22635;DHT22;11484;50.858;4.384;2023-01-08T13:43:54;11.20;99.90
22635;DHT22;11484;50.858;4.384;2023-01-08T13:46:22;11.30;99.90
22635;DHT22;11484;50.858;4.384;2023-01-08T13:49:07;11.20;99.90
22635;DHT22;11484;50.858;4.384;2023-01-08T13:56:42;11.10;99.90
22635;DHT22;11484;50.858;4.384;2023-01-08T14:01:54;11.40;99.90
22635;DHT22;11484;50.858;4.384;2023-01-08T14:04:23;11.40;99.90
22635;DHT22;11484;50.858;4.384;2023-01-08T14:06:49;11.30;99.90
22635;DHT22;11484;50.858;4.384;2023-01-08T14:09:24;11.30;99.90
22635;DHT22;11484;50.858;4.384;2023-01-08T14:11:53;11.30;99.90
22635;DHT22;11484;50.858;4.384;2023-01-08T14:14:22;11.20;99.90
22635;DHT22;11484;50.858;4.384;2023-01-08T14:16:51;11.30;99.90
22635;DHT22;11484;50.858;4.384;2023-01-08T14:19:20;11.30;99.90
22635;DHT22;11484;50.858;4.384;2023-01-08T14:21:49;11.30;99.90
22635;DHT22;11484;50.858;4.384;2023-01-08T14:24:16;11.30;99.90
22635;DHT22;11484;50.858;4.384;2023-01-08T14:26:43;11.30;99.90
22635;DHT22;11484;50.858;4.384;2023-01-08T14:29:17;11.30;99.90
22635;DHT22;11484;50.858;4.384;2023-01-08T14:31:51;11.30;99.90
22635;DHT22;11484;50.858;4.384;2023-01-08T14:34:19;11.20;99.90
22635;DHT22;11484;50.858;4.384;2023-01-08T14:36:46;11.10;99.90
22635;DHT22;11484;50.858;4.384;2023-01-08T14:41:49;10.90;99.90
22635;DHT22;11484;50.858;4.384;2023-01-08T14:44:33;10.90;99.90
22635;DHT22;11484;50.858;4.384;2023-01-08T14:46:59;11.00;99.90
22635;DHT22;11484;50.858;4.384;2023-01-08T14:49:28;11.10;99.90
22635;DHT22;11484;50.858;4.384;2023-01-08T14:51:56;11.20;99.90
22635;DHT22;11484;50.858;4.384;2023-01-08T14:54:29;11.20;99.90
22635;DHT22;11484;50.858;4.384;2023-01-08T14:56:56;11.20;99.90
22635;DHT22;11484;50.858;4.384;2023-01-08T14:59:28;11.10;99.90
22635;DHT22;11484;50.858;4.384;2023-01-08T15:01:56;11.00;99.90
22635;DHT22;11484;50.858;4.384;2023-01-08T15:04:24;11.00;99.90
22635;DHT22;11484;50.858;4.384;2023-01-08T15:06:51;11.00;99.90
22635;DHT22;11484;50.858;4.384;2023-01-08T15:09:32;11.00;99.90
22635;DHT22;11484;50.858;4.384;2023-01-08T15:12:01;11.00;99.90
22635;DHT22;11484;50.858;4.384;2023-01-08T15:14:28;11.00;99.90
22635;DHT22;11484;50.858;4.384;2023-01-08T15:16:57;11.10;99.90
22635;DHT22;11484;50.858;4.384;2023-01-08T15:19:28;11.10;99.90
22635;DHT22;11484;50.858;4.384;2023-01-08T15:21:58;11.10;99.90
22635;DHT22;11484;50.858;4.384;2023-01-08T15:24:36;11.10;99.90
22635;DHT22;11484;50.858;4.384;2023-01-08T15:27:04;11.00;99.90
22635;DHT22;11484;50.858;4.384;2023-01-08T15:29:38;11.00;99.90
22635;DHT22;11484;50.858;4.384;2023-01-08T15:32:22;11.00;99.90
22635;DHT22;11484;50.858;4.384;2023-01-08T15:34:48;11.00;99.90
22635;DHT22;11484;50.858;4.384;2023-01-08T15:37:14;11.00;99.90
22635;DHT22;11484;50.858;4.384;2023-01-08T15:39:41;11.00;99.90
22635;DHT22;11484;50.858;4.384;2023-01-08T15:45:08;11.10;99.90
22635;DHT22;11484;50.858;4.384;2023-01-08T15:47:36;11.10;99.90
22635;DHT22;11484;50.858;4.384;2023-01-08T15:50:02;11.10;99.90
22635;DHT22;11484;50.858;4.384;2023-01-08T15:52:29;11.10;99.90
22635;DHT22;11484;50.858;4.384;2023-01-08T15:55:00;11.10;99.90
22635;DHT22;11484;50.858;4.384;2023-01-08T15:57:26;11.10;99.90
22635;DHT22;11484;50.858;4.384;2023-01-08T15:59:54;11.10;99.90
22635;DHT22;11484;50.858;4.384;2023-01-08T16:02:20;11.10;99.90
22635;DHT22;11484;50.858;4.384;2023-01-08T16:04:51;11.10;99.90
22635;DHT22;11484;50.858;4.384;2023-01-08T16:07:17;11.20;99.90
22635;DHT22;11484;50.858;4.384;2023-01-08T16:09:43;11.20;99.90
22635;DHT22;11484;50.858;4.384;2023-01-08T16:12:08;11.10;99.90
22635;DHT22;11484;50.858;4.384;2023-01-08T16:14:34;11.10;99.90
22635;DHT22;11484;50.858;4.384;2023-01-08T16:17:03;11.10;99.90
22635;DHT22;11484;50.858;4.384;2023-01-08T16:19:30;11.10;99.90
22635;DHT22;11484;50.858;4.384;2023-01-08T16:21:56;11.10;99.90
22635;DHT22;11484;50.858;4.384;2023-01-08T16:24:22;11.10;99.90
22635;DHT22;11484;50.858;4.384;2023-01-08T16:26:48;11.10;99.90
22635;DHT22;11484;50.858;4.384;2023-01-08T16:29:14;11.10;99.90
22635;DHT22;11484;50.858;4.384;2023-01-08T16:31:44;11.10;99.90
22635;DHT22;11484;50.858;4.384;2023-01-08T16:34:10;11.00;99.90
22635;DHT22;11484;50.858;4.384;2023-01-08T16:36:35;11.00;99.90
22635;DHT22;11484;50.858;4.384;2023-01-08T16:39:01;10.90;99.90
22635;DHT22;11484;50.858;4.384;2023-01-08T16:41:27;10.80;99.90
22635;DHT22;11484;50.858;4.384;2023-01-08T16:43:53;10.80;99.90
22635;DHT22;11484;50.858;4.384;2023-01-08T16:46:18;10.80;99.90
22635;DHT22;11484;50.858;4.384;2023-01-08T16:48:44;10.80;99.90
22635;DHT22;11484;50.858;4.384;2023-01-08T16:51:11;10.70;99.90
22635;DHT22;11484;50.858;4.384;2023-01-08T16:53:38;10.70;99.90
22635;DHT22;11484;50.858;4.384;2023-01-08T16:56:04;10.60;99.90
22635;DHT22;11484;50.858;4.384;2023-01-08T16:58:30;10.50;99.90
22635;DHT22;11484;50.858;4.384;2023-01-08T17:01:00;10.50;99.90
22635;DHT22;11484;50.858;4.384;2023-01-08T17:03:28;10.40;99.90
22635;DHT22;11484;50.858;4.384;2023-01-08T17:05:54;10.40;99.90
22635;DHT22;11484;50.858;4.384;2023-01-08T17:08:26;10.40;99.90
22635;DHT22;11484;50.858;4.384;2023-01-08T17:10:52;10.30;99.90
22635;DHT22;11484;50.858;4.384;2023-01-08T17:13:18;10.40;99.90
22635;DHT22;11484;50.858;4.384;2023-01-08T17:15:44;10.40;99.90
22635;DHT22;11484;50.858;4.384;2023-01-08T17:18:11;10.50;99.90
22635;DHT22;11484;50.858;4.384;2023-01-08T17:20:37;10.60;99.90
22635;DHT22;11484;50.858;4.384;2023-01-08T17:23:03;10.60;99.90
22635;DHT22;11484;50.858;4.384;2023-01-08T17:25:28;10.60;99.90